Time;durP1;ratioP1;P1;durP2;ratioP2;P2;SDS_P1;SDS_P2;PMS_P1;PMS_P2;Temp;Humidity;BMP_temperature;BMP_pressure;BME280_temperature;BME280_humidity;BME280_pressure;Samples;Min_cycle;Max_cycle;Signal;HPM_P1;HPM_P2
2022/02/27 00:01:23;;;;;;;;;;;;;;;13.61;36.36;101524.13;4427571;32;20005;-71
2022/02/27 00:03:50;;;;;;;;;;;;;;;13.19;37.12;101519.47;4429166;32;19996;-71
2022/02/27 00:06:15;;;;;;;;;;;;;;;13.46;36.98;101518.03;4428014;32;20342;-71
2022/02/27 00:08:41;;;;;;;;;;;;;;;13.60;36.81;101520.50;4429047;32;20008;-71
2022/02/27 00:11:06;;;;;;;;;;;;;;;13.55;36.95;101515.37;4427138;32;19953;-71
2022/02/27 00:13:32;;;;;;;;;;;;;;;13.59;36.83;101516.09;4420505;32;20009;-71
2022/02/27 00:15:58;;;;;;;;;;;;;;;13.53;37.05;101520.69;4417971;32;20260;-71
2022/02/27 00:18:23;;;;;;;;;;;;;;;13.60;37.02;101505.59;4418298;32;19993;-71
2022/02/27 00:20:49;;;;;;;;;;;;;;;13.25;37.55;101515.69;4416328;32;20079;-71
2022/02/27 00:23:14;;;;;;;;;;;;;;;13.42;37.52;101511.66;4417688;32;20556;-71
2022/02/27 00:25:40;;;;;;;;;;;;;;;13.03;38.07;101523.03;4419165;32;20236;-71
2022/02/27 00:28:07;;;;;;;;;;;;;;;13.03;37.94;101522.25;4417500;32;20065;-71
2022/02/27 00:30:34;;;;;;;;;;;;;;;13.07;38.19;101529.41;4416851;32;19953;-71
2022/02/27 00:32:59;;;;;;;;;;;;;;;13.40;37.65;101519.78;4414787;32;20433;-70
2022/02/27 00:35:25;;;;;;;;;;;;;;;13.12;38.11;101534.56;4419186;32;20008;-70
2022/02/27 00:37:50;;;;;;;;;;;;;;;13.24;37.92;101538.72;4418695;32;19995;-70
2022/02/27 00:40:16;;;;;;;;;;;;;;;13.18;38.00;101532.00;4417076;32;20372;-70
2022/02/27 00:42:42;;;;;;;;;;;;;;;13.16;38.03;101537.31;4417639;32;19953;-70
2022/02/27 00:45:08;;;;;;;;;;;;;;;13.13;38.15;101529.72;4416081;32;19946;-71
2022/02/27 00:47:34;;;;;;;;;;;;;;;13.25;37.99;101529.00;4416107;32;19973;-71
2022/02/27 00:49:59;;;;;;;;;;;;;;;12.99;38.19;101528.00;4416625;32;19961;-70
2022/02/27 00:52:25;;;;;;;;;;;;;;;12.99;38.42;101528.00;4406501;32;21240;-70
2022/02/27 00:54:52;;;;;;;;;;;;;;;12.89;38.42;101528.97;4415618;32;19958;-70
2022/02/27 00:57:19;;;;;;;;;;;;;;;12.99;38.36;101525.16;4417406;32;19961;-70
2022/02/27 00:59:45;;;;;;;;;;;;;;;13.22;37.87;101525.03;4416960;32;20003;-70
2022/02/27 01:02:11;;;;;;;;;;;;;;;13.17;37.98;101514.28;4418737;32;20398;-70
2022/02/27 01:04:37;;;;;;;;;;;;;;;13.08;38.13;101528.19;4417215;32;19949;-71
2022/02/27 01:07:02;;;;;;;;;;;;;;;13.31;37.87;101515.94;4417052;32;20367;-71
2022/02/27 01:09:28;;;;;;;;;;;;;;;13.05;38.02;101522.59;4418509;32;20021;-71
2022/02/27 01:11:53;;;;;;;;;;;;;;;12.89;38.50;101514.81;4413976;32;20003;-70
2022/02/27 01:14:19;;;;;;;;;;;;;;;12.96;38.43;101519.53;4419865;32;20003;-71
2022/02/27 01:16:44;;;;;;;;;;;;;;;13.14;38.12;101520.78;4417523;32;20008;-71
2022/02/27 01:19:10;;;;;;;;;;;;;;;12.74;38.85;101513.56;4418920;32;19972;-71
2022/02/27 01:21:38;;;;;;;;;;;;;;;12.99;38.44;101527.16;4416326;32;20045;-71
2022/02/27 01:24:03;;;;;;;;;;;;;;;12.86;38.68;101524.19;4416181;32;19977;-70
2022/02/27 01:26:29;;;;;;;;;;;;;;;12.70;38.90;101528.97;4417930;32;20063;-70
2022/02/27 01:28:55;;;;;;;;;;;;;;;12.68;39.08;101525.78;4415346;32;19998;-70
2022/02/27 01:31:20;;;;;;;;;;;;;;;12.81;38.73;101530.34;4414817;32;19989;-70
2022/02/27 01:33:46;;;;;;;;;;;;;;;12.86;38.78;101529.81;4415039;32;19964;-71
2022/02/27 01:36:11;;;;;;;;;;;;;;;12.68;38.97;101534.25;4401435;32;20087;-71
2022/02/27 01:38:37;;;;;;;;;;;;;;;12.80;38.80;101528.78;4417963;32;19950;-70
2022/02/27 01:41:03;;;;;;;;;;;;;;;12.69;38.80;101545.13;4417962;32;20317;-70
2022/02/27 01:43:28;;;;;;;;;;;;;;;12.89;38.66;101540.25;4416172;32;19972;-70
2022/02/27 01:45:55;;;;;;;;;;;;;;;12.79;38.84;101543.31;4417734;32;19980;-70
2022/02/27 01:48:20;;;;;;;;;;;;;;;12.72;39.00;101552.72;4414314;32;20283;-70
2022/02/27 01:50:46;;;;;;;;;;;;;;;12.81;38.82;101552.94;4415086;32;19973;-70
2022/02/27 01:53:12;;;;;;;;;;;;;;;12.81;38.95;101549.31;4420114;32;20457;-70
2022/02/27 01:55:38;;;;;;;;;;;;;;;12.45;39.41;101549.22;4417812;32;20195;-70
2022/02/27 01:58:03;;;;;;;;;;;;;;;12.45;39.73;101559.72;4418318;32;20329;-70
2022/02/27 02:00:29;;;;;;;;;;;;;;;12.69;39.04;101558.44;4415671;32;19964;-70
2022/02/27 02:02:54;;;;;;;;;;;;;;;12.38;39.66;101565.47;4401560;32;19974;-70
2022/02/27 02:05:20;;;;;;;;;;;;;;;12.81;38.90;101554.97;4418299;32;19976;-70
2022/02/27 02:07:46;;;;;;;;;;;;;;;12.72;38.79;101563.22;4418594;32;20072;-70
2022/02/27 02:10:12;;;;;;;;;;;;;;;12.59;39.19;101563.06;4417582;32;20038;-70
2022/02/27 02:12:37;;;;;;;;;;;;;;;12.74;38.96;101560.75;4414834;32;20004;-71
2022/02/27 02:15:03;;;;;;;;;;;;;;;12.82;38.74;101568.66;4416521;32;19993;-71
2022/02/27 02:17:29;;;;;;;;;;;;;;;12.88;38.62;101566.91;4418331;32;19981;-71
2022/02/27 02:19:55;;;;;;;;;;;;;;;12.83;38.22;101561.81;4416200;32;20047;-71
2022/02/27 02:22:21;;;;;;;;;;;;;;;12.92;38.35;101561.22;4402426;32;19954;-71
2022/02/27 02:24:47;;;;;;;;;;;;;;;12.98;38.29;101557.41;4418467;32;19989;-71
2022/02/27 02:27:12;;;;;;;;;;;;;;;12.90;38.51;101560.84;4415159;32;20011;-71
2022/02/27 02:29:38;;;;;;;;;;;;;;;12.72;38.58;101552.72;4416363;32;19989;-71
2022/02/27 02:32:04;;;;;;;;;;;;;;;12.71;38.81;101556.78;4419249;32;19992;-71
2022/02/27 02:34:29;;;;;;;;;;;;;;;12.60;39.01;101572.31;4414678;32;20001;-71
2022/02/27 02:36:55;;;;;;;;;;;;;;;12.70;38.79;101557.22;4413990;32;20412;-71
2022/02/27 02:39:22;;;;;;;;;;;;;;;12.80;38.63;101564.69;4415992;32;20369;-71
2022/02/27 02:41:48;;;;;;;;;;;;;;;12.93;38.45;101566.44;4418528;32;20098;-71
2022/02/27 02:44:13;;;;;;;;;;;;;;;12.88;38.39;101561.28;4419323;32;19971;-71
2022/02/27 02:46:40;;;;;;;;;;;;;;;12.74;38.51;101564.41;4415855;32;19965;-71
2022/02/27 02:49:06;;;;;;;;;;;;;;;12.67;38.61;101555.25;4417653;32;19989;-71
2022/02/27 02:51:32;;;;;;;;;;;;;;;12.84;38.38;101562.56;4416135;32;20413;-71
2022/02/27 02:53:57;;;;;;;;;;;;;;;12.65;38.56;101552.88;4413408;32;20009;-71
2022/02/27 02:56:23;;;;;;;;;;;;;;;12.79;38.30;101552.56;4413853;32;20316;-71
2022/02/27 02:58:49;;;;;;;;;;;;;;;13.02;37.97;101541.25;4416987;32;19950;-71
2022/02/27 03:01:15;;;;;;;;;;;;;;;12.93;38.10;101546.66;4412293;32;20044;-71
2022/02/27 03:03:42;;;;;;;;;;;;;;;13.02;37.92;101546.91;4414535;32;20004;-71
2022/02/27 03:06:08;;;;;;;;;;;;;;;13.04;37.77;101557.75;4417296;32;20349;-71
2022/02/27 03:08:34;;;;;;;;;;;;;;;12.98;37.78;101551.78;4411487;32;20367;-71
2022/02/27 03:11:00;;;;;;;;;;;;;;;12.86;37.99;101546.00;4417138;32;19960;-71
2022/02/27 03:13:25;;;;;;;;;;;;;;;12.48;38.78;101539.88;4419132;32;20456;-71
2022/02/27 03:15:51;;;;;;;;;;;;;;;12.76;38.00;101536.50;4418066;32;19946;-71
2022/02/27 03:18:16;;;;;;;;;;;;;;;12.72;38.27;101535.78;4416149;32;20702;-71
2022/02/27 03:20:42;;;;;;;;;;;;;;;12.73;38.09;101528.13;4415731;32;20150;-71
2022/02/27 03:23:08;;;;;;;;;;;;;;;12.66;38.31;101525.41;4415966;32;20468;-71
2022/02/27 03:25:33;;;;;;;;;;;;;;;12.83;37.84;101522.25;4415890;32;20001;-71
2022/02/27 03:27:59;;;;;;;;;;;;;;;12.72;37.83;101526.50;4413477;32;19968;-71
2022/02/27 03:30:24;;;;;;;;;;;;;;;12.81;38.10;101521.06;4417210;32;20026;-71
2022/02/27 03:32:50;;;;;;;;;;;;;;;12.82;37.96;101515.00;4416919;32;20058;-71
2022/02/27 03:35:16;;;;;;;;;;;;;;;12.91;37.79;101503.09;4416201;32;20297;-71
2022/02/27 03:37:42;;;;;;;;;;;;;;;12.77;38.06;101503.41;4413992;32;19949;-71
2022/02/27 03:40:07;;;;;;;;;;;;;;;12.58;38.41;101490.09;4411913;32;19961;-71
2022/02/27 03:42:33;;;;;;;;;;;;;;;12.60;38.21;101487.63;4414323;32;21023;-71
2022/02/27 03:44:58;;;;;;;;;;;;;;;12.75;37.96;101486.91;4416586;32;20335;-71
2022/02/27 03:47:24;;;;;;;;;;;;;;;12.43;38.63;101485.97;4411129;32;20054;-71
2022/02/27 03:49:49;;;;;;;;;;;;;;;12.51;38.61;101493.03;4421306;32;19949;-71
2022/02/27 03:52:16;;;;;;;;;;;;;;;12.70;37.98;101489.44;4417225;32;19996;-71
2022/02/27 03:54:42;;;;;;;;;;;;;;;12.81;38.03;101487.97;4417379;32;20009;-71
2022/02/27 03:57:08;;;;;;;;;;;;;;;12.71;38.01;101482.56;4416448;32;19991;-71
2022/02/27 03:59:33;;;;;;;;;;;;;;;12.55;38.42;101482.50;4418343;32;19990;-71
2022/02/27 04:01:59;;;;;;;;;;;;;;;12.80;37.91;101479.94;4418175;32;19989;-71
2022/02/27 04:04:24;;;;;;;;;;;;;;;12.72;38.22;101479.28;4416260;32;20015;-71
2022/02/27 04:06:50;;;;;;;;;;;;;;;12.74;38.12;101478.88;4416399;32;20015;-71
2022/02/27 04:09:15;;;;;;;;;;;;;;;12.60;38.29;101479.94;4415802;32;19957;-71
2022/02/27 04:11:41;;;;;;;;;;;;;;;12.55;38.45;101485.31;4421800;32;20001;-71
2022/02/27 04:14:07;;;;;;;;;;;;;;;12.70;38.34;101486.62;4417960;32;19984;-71
2022/02/27 04:16:33;;;;;;;;;;;;;;;12.55;38.46;101480.44;4416562;32;19962;-71
2022/02/27 04:18:58;;;;;;;;;;;;;;;12.70;38.12;101476.09;4421072;32;20400;-71
2022/02/27 04:21:24;;;;;;;;;;;;;;;12.49;38.49;101476.53;4417495;32;20342;-71
2022/02/27 04:23:50;;;;;;;;;;;;;;;12.55;38.50;101480.44;4413616;32;20438;-71
2022/02/27 04:26:15;;;;;;;;;;;;;;;12.55;38.67;101476.84;4417035;32;19993;-71
2022/02/27 04:28:41;;;;;;;;;;;;;;;12.55;38.41;101482.50;4420148;32;20007;-71
2022/02/27 04:31:06;;;;;;;;;;;;;;;12.58;38.19;101488.03;4416326;32;19973;-71
2022/02/27 04:33:32;;;;;;;;;;;;;;;12.67;38.18;101484.66;4418944;32;19980;-71
2022/02/27 04:35:58;;;;;;;;;;;;;;;12.59;38.34;101474.72;4405056;32;20026;-71
2022/02/27 04:38:23;;;;;;;;;;;;;;;12.52;38.42;101475.66;4421624;32;19960;-71
2022/02/27 04:40:49;;;;;;;;;;;;;;;12.54;38.54;101470.38;4417767;32;19956;-71
2022/02/27 04:43:15;;;;;;;;;;;;;;;12.48;38.62;101465.66;4417459;32;20036;-71
2022/02/27 04:45:41;;;;;;;;;;;;;;;12.38;38.81;101461.03;4421037;32;19953;-71
2022/02/27 04:48:07;;;;;;;;;;;;;;;11.90;39.81;101467.19;4416126;32;19956;-71
2022/02/27 04:50:33;;;;;;;;;;;;;;;11.87;39.93;101457.56;4416266;32;19962;-71
2022/02/27 04:52:58;;;;;;;;;;;;;;;11.88;39.80;101458.38;4420170;32;19990;-71
2022/02/27 04:55:24;;;;;;;;;;;;;;;11.84;39.99;101457.63;4415013;32;20016;-71
2022/02/27 04:57:50;;;;;;;;;;;;;;;11.90;40.16;101461.56;4416613;32;19953;-71
2022/02/27 05:00:15;;;;;;;;;;;;;;;11.82;39.98;101460.87;4415305;32;20442;-71
2022/02/27 05:02:41;;;;;;;;;;;;;;;11.74;40.50;101452.97;4416478;32;19950;-71
2022/02/27 05:05:06;;;;;;;;;;;;;;;11.91;40.28;101457.53;4416797;32;19950;-71
2022/02/27 05:07:32;;;;;;;;;;;;;;;11.92;40.08;101448.62;4417683;32;19963;-71
2022/02/27 05:09:58;;;;;;;;;;;;;;;11.63;40.91;101460.84;4416310;32;20000;-71
2022/02/27 05:12:23;;;;;;;;;;;;;;;11.64;40.89;101445.50;4417877;32;20410;-71
2022/02/27 05:14:49;;;;;;;;;;;;;;;11.48;41.34;101448.94;4419034;32;19968;-71
2022/02/27 05:17:14;;;;;;;;;;;;;;;11.67;40.97;101455.94;4418314;32;19957;-71
2022/02/27 05:19:40;;;;;;;;;;;;;;;11.62;41.06;101451.56;4418229;32;20009;-71
2022/02/27 05:22:05;;;;;;;;;;;;;;;11.69;41.04;101453.50;4414131;32;19996;-71
2022/02/27 05:24:31;;;;;;;;;;;;;;;11.88;40.80;101461.19;4418244;32;20442;-71
2022/02/27 05:26:56;;;;;;;;;;;;;;;11.91;40.36;101457.53;4416848;32;20045;-71
2022/02/27 05:29:21;;;;;;;;;;;;;;;11.80;40.82;101463.34;4416846;32;19989;-71
2022/02/27 05:31:47;;;;;;;;;;;;;;;11.96;40.26;101455.00;4419305;32;19981;-71
2022/02/27 05:34:12;;;;;;;;;;;;;;;11.91;40.46;101466.75;4416567;32;20300;-71
2022/02/27 05:36:38;;;;;;;;;;;;;;;12.00;40.30;101457.75;4417166;32;20387;-71
2022/02/27 05:39:04;;;;;;;;;;;;;;;11.93;40.11;101455.84;4416054;32;20011;-71
2022/02/27 05:41:30;;;;;;;;;;;;;;;12.12;39.96;101461.97;4417459;32;20353;-71
2022/02/27 05:43:56;;;;;;;;;;;;;;;12.13;39.50;101459.50;4416273;32;20082;-71
2022/02/27 05:46:22;;;;;;;;;;;;;;;12.13;39.83;101466.38;4419864;32;19993;-71
2022/02/27 05:48:47;;;;;;;;;;;;;;;12.13;39.83;101469.19;4416140;32;19957;-71
2022/02/27 05:51:12;;;;;;;;;;;;;;;12.15;39.84;101470.34;4416103;32;19966;-71
2022/02/27 05:53:38;;;;;;;;;;;;;;;12.13;39.98;101467.19;4419041;32;20280;-71
2022/02/27 05:56:04;;;;;;;;;;;;;;;12.09;39.93;101477.75;4416444;32;20005;-71
2022/02/27 05:58:31;;;;;;;;;;;;;;;11.89;40.30;101466.41;4418252;32;19997;-71
2022/02/27 06:00:56;;;;;;;;;;;;;;;11.99;40.14;101470.25;4419003;32;20008;-71
2022/02/27 06:03:22;;;;;;;;;;;;;;;11.84;40.36;101464.06;4417424;32;20012;-71
2022/02/27 06:05:47;;;;;;;;;;;;;;;11.80;40.42;101452.06;4415626;32;20287;-71
2022/02/27 06:08:13;;;;;;;;;;;;;;;11.43;41.24;101460.72;4416783;32;19953;-71
2022/02/27 06:10:39;;;;;;;;;;;;;;;11.77;40.54;101455.75;4416055;32;20398;-71
2022/02/27 06:13:04;;;;;;;;;;;;;;;11.58;41.25;101456.44;4417502;32;20004;-71
2022/02/27 06:15:29;;;;;;;;;;;;;;;11.79;40.75;101461.72;4417233;32;19953;-71
2022/02/27 06:17:55;;;;;;;;;;;;;;;11.41;41.31;101465.19;4416821;32;20031;-71
2022/02/27 06:20:21;;;;;;;;;;;;;;;11.49;40.98;101466.66;4412888;32;20047;-71
2022/02/27 06:22:47;;;;;;;;;;;;;;;11.66;40.99;101474.84;4415825;32;19965;-71
2022/02/27 06:25:14;;;;;;;;;;;;;;;11.72;40.93;101472.38;4416991;32;20306;-71
2022/02/27 06:27:42;;;;;;;;;;;;;;;11.75;40.79;101480.75;4415542;32;20008;-71
2022/02/27 06:30:12;;;;;;;;;;;;;;;11.66;40.94;101477.69;4419222;32;19969;-71
2022/02/27 06:32:38;;;;;;;;;;;;;;;11.58;41.18;101484.66;4416189;32;19967;-71
2022/02/27 06:35:04;;;;;;;;;;;;;;;11.60;40.91;101485.00;4417492;32;20314;-71
2022/02/27 06:37:30;;;;;;;;;;;;;;;11.48;41.25;101482.78;4413277;32;19958;-71
2022/02/27 06:39:55;;;;;;;;;;;;;;;11.48;41.08;101482.00;4414503;32;20009;-71
2022/02/27 06:42:21;;;;;;;;;;;;;;;11.39;41.25;101485.31;4415311;32;19954;-71
2022/02/27 06:44:47;;;;;;;;;;;;;;;11.48;41.22;101482.00;4416786;32;20308;-71
2022/02/27 06:47:13;;;;;;;;;;;;;;;11.49;41.42;101490.03;4417756;32;20542;-71
2022/02/27 06:49:38;;;;;;;;;;;;;;;11.54;40.93;101478.25;4418203;32;19964;-71
2022/02/27 06:52:04;;;;;;;;;;;;;;;11.49;41.36;101483.59;4416253;32;19950;-72
2022/02/27 06:54:29;;;;;;;;;;;;;;;11.46;41.13;101479.59;4415780;32;19965;-71
2022/02/27 06:56:55;;;;;;;;;;;;;;;11.35;41.31;101484.59;4419592;32;20224;-71
2022/02/27 06:59:20;;;;;;;;;;;;;;;11.33;41.27;101480.63;4414323;32;19953;-71
2022/02/27 07:01:46;;;;;;;;;;;;;;;11.28;41.31;101479.06;4412554;32;20027;-71
2022/02/27 07:04:11;;;;;;;;;;;;;;;11.27;41.35;101485.13;4415753;32;20030;-71
2022/02/27 07:06:40;;;;;;;;;;;;;;;11.38;41.03;101480.94;4417661;32;19985;-71
2022/02/27 07:09:06;;;;;;;;;;;;;;;11.40;41.09;101478.50;4417097;32;20064;-71
2022/02/27 07:11:32;;;;;;;;;;;;;;;11.01;41.55;101483.91;4416161;32;19963;-71
2022/02/27 07:13:58;;;;;;;;;;;;;;;11.27;41.30;101480.31;4414363;32;19966;-71
2022/02/27 07:16:24;;;;;;;;;;;;;;;11.35;41.23;101475.38;4413646;32;20334;-71
2022/02/27 07:18:50;;;;;;;;;;;;;;;11.23;41.43;101473.91;4416436;32;20364;-71
2022/02/27 07:21:16;;;;;;;;;;;;;;;11.27;41.23;101474.66;4415724;32;20121;-71
2022/02/27 07:23:41;;;;;;;;;;;;;;;11.30;41.25;101473.00;4415894;32;19950;-71
2022/02/27 07:26:07;;;;;;;;;;;;;;;11.20;41.53;101473.97;4418210;32;19950;-71
2022/02/27 07:28:32;;;;;;;;;;;;;;;11.31;41.13;101481.03;4420901;32;19958;-71
2022/02/27 07:30:58;;;;;;;;;;;;;;;11.34;41.10;101485.03;4420337;32;20256;-71
2022/02/27 07:33:24;;;;;;;;;;;;;;;11.26;41.50;101484.31;4419110;32;20000;-71
2022/02/27 07:35:50;;;;;;;;;;;;;;;11.33;41.50;101486.25;4419287;32;19955;-71
2022/02/27 07:38:15;;;;;;;;;;;;;;;11.06;41.56;101489.06;4415190;32;20008;-71
2022/02/27 07:40:41;;;;;;;;;;;;;;;11.39;41.08;101490.19;4417362;32;20029;-71
2022/02/27 07:43:06;;;;;;;;;;;;;;;11.30;41.50;101479.47;4416131;32;20327;-71
2022/02/27 07:45:31;;;;;;;;;;;;;;;11.39;41.31;101487.37;4417949;32;20345;-71
2022/02/27 07:47:57;;;;;;;;;;;;;;;11.52;41.24;101489.16;4415614;32;20298;-71
2022/02/27 07:50:22;;;;;;;;;;;;;;;11.55;41.27;101484.69;4418338;32;19996;-71
2022/02/27 07:52:48;;;;;;;;;;;;;;;11.66;41.19;101480.50;4418804;32;20287;-71
2022/02/27 07:55:13;;;;;;;;;;;;;;;11.66;41.11;101479.72;4422043;32;19953;-71
2022/02/27 07:57:39;;;;;;;;;;;;;;;11.74;40.90;101476.34;4418874;32;19980;-71
2022/02/27 08:00:06;;;;;;;;;;;;;;;11.91;40.86;101471.63;4419242;32;20008;-71
2022/02/27 08:02:31;;;;;;;;;;;;;;;12.03;40.66;101471.78;4417484;32;20032;-71
2022/02/27 08:04:57;;;;;;;;;;;;;;;12.03;40.23;101471.78;4417351;32;20438;-71
2022/02/27 08:07:22;;;;;;;;;;;;;;;12.00;40.38;101469.03;4415619;32;20450;-71
2022/02/27 08:09:48;;;;;;;;;;;;;;;12.20;40.01;101469.88;4421042;32;20027;-71
2022/02/27 08:12:13;;;;;;;;;;;;;;;12.53;39.71;101465.97;4418906;32;20012;-71
2022/02/27 08:14:39;;;;;;;;;;;;;;;12.56;39.24;101473.59;4417274;32;20350;-71
2022/02/27 08:17:04;;;;;;;;;;;;;;;12.55;39.12;101485.31;4414570;32;20649;-71
2022/02/27 08:19:30;;;;;;;;;;;;;;;12.75;38.69;101480.44;4419860;32;20308;-71
2022/02/27 08:21:55;;;;;;;;;;;;;;;12.98;38.54;101474.72;4415827;32;20060;-71
2022/02/27 08:24:21;;;;;;;;;;;;;;;13.31;37.25;101482.03;4419778;32;19957;-71
2022/02/27 08:26:47;;;;;;;;;;;;;;;13.48;37.56;101475.16;4418864;32;20016;-71
2022/02/27 08:29:13;;;;;;;;;;;;;;;13.59;37.25;101468.00;4414602;32;20372;-71
2022/02/27 08:31:42;;;;;;;;;;;;;;;13.85;36.55;101466.16;4417809;32;20347;-71
2022/02/27 08:34:08;;;;;;;;;;;;;;;13.54;36.30;101474.22;4415255;32;19969;-71
2022/02/27 08:36:33;;;;;;;;;;;;;;;13.75;36.56;101473.66;4416468;32;19998;-71
2022/02/27 08:38:59;;;;;;;;;;;;;;;13.49;36.27;101471.09;4417556;32;20350;-71
2022/02/27 08:41:26;;;;;;;;;;;;;;;13.46;36.87;101471.97;4419754;32;20447;-71
2022/02/27 08:43:51;;;;;;;;;;;;;;;13.89;36.73;101495.13;4416301;32;20001;-71
2022/02/27 08:46:17;;;;;;;;;;;;;;;13.50;36.93;101496.09;4418165;32;19967;-71
2022/02/27 08:48:42;;;;;;;;;;;;;;;14.00;36.13;101502.09;4415742;32;19954;-71
2022/02/27 08:51:08;;;;;;;;;;;;;;;14.13;35.61;101498.56;4416933;32;20500;-71
2022/02/27 08:53:34;;;;;;;;;;;;;;;14.56;35.29;101505.50;4417872;32;20018;-71
2022/02/27 08:55:59;;;;;;;;;;;;;;;14.62;34.65;101500.88;4417395;32;19950;-71
2022/02/27 08:58:25;;;;;;;;;;;;;;;14.99;34.57;101500.16;4419120;32;19969;-71
2022/02/27 09:00:50;;;;;;;;;;;;;;;15.24;34.07;101499.41;4416951;32;19960;-71
2022/02/27 09:03:16;;;;;;;;;;;;;;;15.15;33.61;101505.75;4417999;32;19984;-71
2022/02/27 09:05:43;;;;;;;;;;;;;;;15.35;33.49;101500.69;4404956;32;20017;-71
2022/02/27 09:08:08;;;;;;;;;;;;;;;15.07;33.93;101495.09;4403485;32;20403;-71
2022/02/27 09:10:34;;;;;;;;;;;;;;;15.15;34.10;101497.25;4416915;32;19975;-71
2022/02/27 09:13:00;;;;;;;;;;;;;;;15.42;33.54;101488.31;4419793;32;20040;-71
2022/02/27 09:15:25;;;;;;;;;;;;;;;15.33;34.00;101485.34;4417089;32;20009;-71
2022/02/27 09:17:51;;;;;;;;;;;;;;;15.17;34.29;101474.09;4418062;32;20012;-71
2022/02/27 09:20:17;;;;;;;;;;;;;;;15.06;34.32;101470.78;4415888;32;20037;-71
2022/02/27 09:22:43;;;;;;;;;;;;;;;15.08;34.50;101480.47;4416308;32;19957;-71
2022/02/27 09:25:08;;;;;;;;;;;;;;;14.98;34.81;101473.09;4418592;32;19954;-71
2022/02/27 09:27:34;;;;;;;;;;;;;;;15.25;34.47;101484.78;4415975;32;20478;-71
2022/02/27 09:30:00;;;;;;;;;;;;;;;15.46;33.89;101480.50;4415600;32;20075;-71
2022/02/27 09:32:26;;;;;;;;;;;;;;;15.44;33.74;101471.66;4415782;32;20386;-71
2022/02/27 09:34:52;;;;;;;;;;;;;;;15.80;33.36;101480.56;4416761;32;19954;-71
2022/02/27 09:37:19;;;;;;;;;;;;;;;16.38;32.74;101476.09;4414852;32;20001;-71
2022/02/27 09:39:45;;;;;;;;;;;;;;;16.32;32.25;101480.75;4415506;32;19993;-71
2022/02/27 09:42:11;;;;;;;;;;;;;;;17.12;31.46;101468.41;4418166;32;20048;-71
2022/02/27 09:44:39;;;;;;;;;;;;;;;16.94;31.15;101474.00;4417050;32;20330;-71
2022/02/27 09:47:07;;;;;;;;;;;;;;;16.73;31.43;101477.66;4417720;32;19946;-71
2022/02/27 09:49:33;;;;;;;;;;;;;;;16.71;31.56;101482.22;4414209;32;20421;-71
2022/02/27 09:51:59;;;;;;;;;;;;;;;16.77;31.47;101469.78;4416327;32;19980;-71
2022/02/27 09:54:25;;;;;;;;;;;;;;;16.89;31.45;101477.44;4415000;32;19957;-71
2022/02/27 09:56:51;;;;;;;;;;;;;;;17.12;31.23;101471.25;4413922;32;19945;-71
2022/02/27 09:59:16;;;;;;;;;;;;;;;17.36;30.58;101471.53;4416500;32;20045;-71
2022/02/27 10:02:01;;;;;;;;;;;;;;;17.68;30.08;101468.22;4418471;32;20005;-71
2022/02/27 10:04:31;;;;;;;;;;;;;;;17.73;29.90;101461.88;4417276;32;19941;-71
2022/02/27 10:06:57;;;;;;;;;;;;;;;18.38;29.27;101472.94;4413873;32;19969;-71
2022/02/27 10:09:23;;;;;;;;;;;;;;;18.40;29.02;101468.34;4417424;32;19968;-71
2022/02/27 10:11:49;;;;;;;;;;;;;;;18.23;29.37;101469.09;4413605;32;19996;-71
2022/02/27 10:14:23;;;;;;;;;;;;;;;18.08;29.35;101454.69;4413396;32;20442;-71
2022/02/27 10:16:49;;;;;;;;;;;;;;;18.22;29.07;101461.81;4415108;32;20343;-71
2022/02/27 10:19:18;;;;;;;;;;;;;;;18.27;28.98;101459.12;4415909;32;19957;-71
2022/02/27 10:21:45;;;;;;;;;;;;;;;18.11;29.36;101455.78;4417033;32;19980;-71
2022/02/27 10:24:11;;;;;;;;;;;;;;;18.05;29.30;101460.53;4416105;32;20315;-71
2022/02/27 10:26:38;;;;;;;;;;;;;;;17.86;29.55;101454.03;4415202;32;20001;-71
2022/02/27 10:31:45;;;;;;;;;;;;;;;19.10;28.12;101456.50;3969525;32;15855597;-71
2022/02/27 10:34:30;;;;;;;;;;;;;;;19.10;28.12;101456.50;4430936;32;19975;-71
2022/02/27 10:37:00;;;;;;;;;;;;;;;18.67;28.36;101451.22;4447681;32;20303;-71
2022/02/27 10:39:26;;;;;;;;;;;;;;;18.79;28.20;101452.28;4447287;32;20008;-71
2022/02/27 10:41:52;;;;;;;;;;;;;;;18.63;28.24;101441.25;4450208;32;20415;-71
2022/02/27 10:44:22;;;;;;;;;;;;;;;18.56;28.45;101444.44;4446649;32;20321;-71
2022/02/27 10:46:47;;;;;;;;;;;;;;;18.12;29.03;101446.75;4446633;32;20011;-71
2022/02/27 10:49:13;;;;;;;;;;;;;;;18.24;28.97;101440.13;4449557;32;19966;-71
2022/02/27 10:51:39;;;;;;;;;;;;;;;18.38;28.87;101450.13;4447027;32;20438;-71
2022/02/27 10:54:05;;;;;;;;;;;;;;;18.53;28.82;101457.56;4448618;32;20294;-71
2022/02/27 10:56:33;;;;;;;;;;;;;;;17.49;30.02;101430.34;4444822;32;20574;-71
2022/02/27 10:59:10;;;;;;;;;;;;;;;17.61;30.07;101429.44;4444579;32;20310;-71
2022/02/27 11:01:38;;;;;;;;;;;;;;;17.60;29.84;101444.94;4448220;32;19953;-71
2022/02/27 11:04:05;;;;;;;;;;;;;;;18.40;29.15;101442.69;4448675;32;20019;-71
2022/02/27 11:06:30;;;;;;;;;;;;;;;18.65;28.82;101436.63;4448268;32;20001;-71
2022/02/27 11:08:58;;;;;;;;;;;;;;;18.60;28.39;101453.59;4447416;32;19997;-71
2022/02/27 11:11:23;;;;;;;;;;;;;;;18.56;28.43;101433.03;4446657;32;19972;-71
2022/02/27 11:13:49;;;;;;;;;;;;;;;18.11;28.70;101441.53;4444749;32;19961;-71
2022/02/27 11:16:15;;;;;;;;;;;;;;;17.89;29.32;101444.53;4448697;32;19965;-71
2022/02/27 11:18:41;;;;;;;;;;;;;;;17.67;29.80;101423.91;4449221;32;19993;-71
2022/02/27 11:21:08;;;;;;;;;;;;;;;17.71;29.39;101408.25;4447138;32;19964;-71
2022/02/27 11:23:36;;;;;;;;;;;;;;;18.08;29.26;101414.00;4448553;32;20021;-71
2022/02/27 11:26:03;;;;;;;;;;;;;;;17.79;29.18;101401.00;4448012;32;19957;-71
2022/02/27 11:28:30;;;;;;;;;;;;;;;17.81;29.32;101406.22;4436122;32;19964;-71
2022/02/27 11:30:59;;;;;;;;;;;;;;;19.07;27.99;101403.25;4444659;32;20001;-71
2022/02/27 11:33:25;;;;;;;;;;;;;;;18.88;28.09;101418.84;4447195;32;20385;-71
2022/02/27 11:35:52;;;;;;;;;;;;;;;19.42;27.47;101420.75;4447596;32;20001;-71
2022/02/27 11:38:19;;;;;;;;;;;;;;;19.48;27.25;101421.62;4444251;32;20012;-71
2022/02/27 11:40:46;;;;;;;;;;;;;;;18.82;27.77;101420.78;4447286;32;20738;-71
2022/02/27 11:43:16;;;;;;;;;;;;;;;18.40;28.38;101419.87;4437401;32;20256;-71
2022/02/27 11:48:17;;;;;;;;;;;;;;;19.36;27.30;101423.44;3951600;32;15721552;-71
2022/02/27 11:50:51;;;;;;;;;;;;;;;19.32;27.17;101408.56;4427438;32;19961;-71
2022/02/27 11:53:24;;;;;;;;;;;;;;;19.14;27.37;101410.66;4425820;32;19961;-72
2022/02/27 11:55:50;;;;;;;;;;;;;;;19.18;27.72;101406.37;4427431;32;19965;-71
2022/02/27 11:58:18;;;;;;;;;;;;;;;19.51;27.48;101400.69;4426520;32;20056;-71
2022/02/27 12:00:44;;;;;;;;;;;;;;;20.10;26.44;101410.28;4427188;32;20001;-72
2022/02/27 12:03:29;;;;;;;;;;;;;;;20.00;26.30;101408.78;4425931;32;20372;-71
2022/02/27 12:05:55;;;;;;;;;;;;;;;19.69;26.62;101414.84;4423988;32;20016;-71
2022/02/27 12:08:38;;;;;;;;;;;;;;;20.07;26.15;101409.22;4425777;32;20010;-71
2022/02/27 12:11:04;;;;;;;;;;;;;;;20.63;25.58;101402.53;4426960;32;19969;-72
2022/02/27 12:13:30;;;;;;;;;;;;;;;21.39;24.74;101405.91;4428379;32;20015;-72
2022/02/27 12:16:13;;;;;;;;;;;;;;;21.66;23.96;101396.94;4428337;32;20515;-72
2022/02/27 12:18:54;;;;;;;;;;;;;;;21.82;23.98;101409.16;4426500;32;20365;-72
2022/02/27 12:21:33;;;;;;;;;;;;;;;21.19;24.64;101407.94;4425759;32;19989;-72
2022/02/27 12:24:05;;;;;;;;;;;;;;;22.01;23.80;101394.06;4426305;32;19988;-72
2022/02/27 12:29:07;;;;;;;;;;;;;;;22.79;22.96;101389.97;3951192;32;15722618;-71
2022/02/27 12:31:33;;;;;;;;;;;;;;;22.79;22.96;101389.97;4427296;32;20001;-72
2022/02/27 12:33:59;;;;;;;;;;;;;;;22.58;23.13;101382.75;4427273;32;19949;-72
2022/02/27 12:36:27;;;;;;;;;;;;;;;22.21;23.53;101390.41;4428371;32;19989;-71
2022/02/27 12:38:55;;;;;;;;;;;;;;;22.01;23.64;101370.34;4428847;32;19973;-72